Decoded Metar for CYLW (KELOWNA in BC, CANADA) (IATA:YLW) | Meteo·Mobile Aviation Weather
aviador You're here:

CYLW Decoded Metar

KELOWNA in BC, CANADA
Report Time2019-04-25 21:00:00
UTC Time2019-04-25 21:48:27
Flight Rules vfr VFR
Wind360° at 07 kt
W.Decomp.*RWY 34: 7.0 kt HW 0.2 kt RCW
Visibility9999 m
Phenomena:N/A
Clouds:N/A
Expected CloudBase > 6,400 ft AGL from Temp-Dew spread
CeilingNone
Temp15°C (ISA +3)
Dew Point-1°C (34% RH)
AAT10.4°C
QNH1020 hPa
Density Alt1,588 ft
Elevation1,411 ft
Report Wrong Elevation
Raw Report
CYLW 252100Z AUTO 36007KT 300V030 9SM CLR 15/M01 A3013 RMK SLP214
DENSITY ALT 1500FT=

Extra information for CYLW:More info

Metar Taf Metar & Taf Last 4 Metars F.Rules Stats Wind Profile Meteogram Temp Stats Airport Information Weather charts Add Link Nearby VenuesMetar ALERT Operation Metar Decoded Social comments